LEMG/AGP METAR and TAF weather

Enter ICAO airport designator
Station Type Date Time Source
LEMG METAR 2020/07/06 20:30 UTC NOAA

LEMG 062030Z 09007KT CAVOK 23/22 Q1015 NOSIG


Station Type Date Time Source
LEMG Decoded METAR 2020/07/06 20:30 UTC NOAA

Malaga / Aeropuerto, Spain (LEMG) 36-40N 004-29W 7M
Jul 06, 2020 - 04:30 PM EDT / 2020.07.06 2030 UTC
Wind: from the E (090 degrees) at 8 MPH (7 KT):0
Visibility: greater than 7 mile(s):0
Temperature: 73 F (23 C)
Dew Point: 71 F (22 C)
Relative Humidity: 94%
Pressure (altimeter): 29.97 in. Hg (1015 hPa)
ob: LEMG 062030Z 09007KT CAVOK 23/22 Q1015 NOSIG
cycle: 20

Station Type Date Time Source
LEMG TAF 2020/07/06 18:27 UTC NOAA

TAF LEMG 061700Z 0618/0718 13007KT 9999 FEW025 TX30/0711Z TN19/0705Z
BECMG 0618/0621 VRB02KT
TEMPO 0700/0705 29006KT
BECMG 0708/0711 13009KT

Example: see airport list